Time;durP1;ratioP1;P1;durP2;ratioP2;P2;SDS_P1;SDS_P2;PMS_P1;PMS_P2;Temp;Humidity;BMP_temperature;BMP_pressure;BME280_temperature;BME280_humidity;BME280_pressure;Samples;Min_cycle;Max_cycle;Signal;HPM_P1;HPM_P2
2022/07/16 00:03:06;;;;;;;1.30;1.20;;;;;;;15.20;46.44;99331.81;5091945;28;41892;-80
2022/07/16 00:05:34;;;;;;;1.53;1.17;;;;;;;15.12;46.74;99339.50;5074210;28;44403;-75
2022/07/16 00:08:02;;;;;;;2.03;1.20;;;;;;;15.10;47.05;99336.09;5073884;28;43659;-75
2022/07/16 00:10:30;;;;;;;1.27;1.17;;;;;;;15.04;47.45;99331.22;5091308;28;39795;-81
2022/07/16 00:12:58;;;;;;;1.37;1.07;;;;;;;14.99;47.10;99330.72;5091004;28;42653;-77
2022/07/16 00:15:26;;;;;;;1.57;1.27;;;;;;;14.93;47.26;99325.84;5073917;28;41638;-78
2022/07/16 00:19:15;;;;;;;1.30;1.20;;;;;;;14.84;47.24;99321.16;5092234;28;43168;-74
2022/07/16 00:20:42;;;;;;;1.00;1.00;;;;;;;14.85;47.39;99326.38;5090672;28;40424;-82
2022/07/16 00:23:10;;;;;;;1.20;1.10;;;;;;;14.79;47.51;99320.66;5092500;28;42660;-83
2022/07/16 00:25:37;;;;;;;1.00;0.90;;;;;;;14.76;47.35;99326.19;5090439;28;42814;-79
2022/07/16 00:28:05;;;;;;;1.77;1.00;;;;;;;14.71;47.45;99319.38;5073464;28;41164;-82
2022/07/16 00:30:33;;;;;;;1.13;0.90;;;;;;;14.69;47.38;99321.31;5092003;28;41942;-79
2022/07/16 00:33:01;;;;;;;1.40;1.20;;;;;;;14.67;47.56;99315.25;5092098;28;42666;-76
2022/07/16 00:35:28;;;;;;;1.50;1.13;;;;;;;14.66;47.58;99318.88;5091569;28;43296;-79
2022/07/16 00:37:58;;;;;;;1.00;1.00;;;;;;;14.63;47.26;99316.41;5073818;28;43345;-77
2022/07/16 00:40:25;;;;;;;1.37;1.10;;;;;;;14.62;47.38;99317.38;5091691;28;39760;-77
2022/07/16 00:42:53;;;;;;;1.17;1.07;;;;;;;14.61;47.43;99321.00;5073659;28;41084;-80
2022/07/16 00:45:21;;;;;;;1.97;1.07;;;;;;;14.60;47.70;99313.97;5090410;28;42707;-81
2022/07/16 00:47:49;;;;;;;2.30;0.83;;;;;;;14.57;47.49;99316.88;5073587;28;41510;-74
2022/07/16 00:50:17;;;;;;;1.97;1.10;;;;;;;14.54;47.62;99313.56;5090392;28;40175;-77
2022/07/16 00:52:44;;;;;;;1.40;0.90;;;;;;;14.51;47.76;99319.94;5093309;28;41662;-83
2022/07/16 00:55:14;;;;;;;1.20;1.10;;;;;;;14.46;48.21;99314.13;5076820;28;41923;-76
2022/07/16 00:57:42;;;;;;;1.97;1.20;;;;;;;14.41;48.81;99305.59;5077089;28;41244;-78
2022/07/16 01:00:10;;;;;;;1.23;1.10;;;;;;;14.36;48.87;99307.69;5076643;28;38943;-82
2022/07/16 01:02:38;;;;;;;1.20;1.10;;;;;;;14.31;49.04;99317.81;5092187;28;41780;-84
2022/07/16 01:05:07;;;;;;;1.60;1.03;;;;;;;14.26;49.22;99311.97;5094289;28;43079;-84
2022/07/16 01:07:35;;;;;;;2.03;1.53;;;;;;;14.20;49.37;99301.75;5095162;28;42180;-77
2022/07/16 01:10:05;;;;;;;2.87;1.20;;;;;;;14.16;49.45;99301.09;5095206;28;39947;-74
2022/07/16 01:12:34;;;;;;;1.73;1.43;;;;;;;14.13;49.04;99308.44;5076998;28;42938;-76
2022/07/16 01:15:03;;;;;;;1.70;1.00;;;;;;;14.08;49.06;99303.47;5094911;28;43828;-81
2022/07/16 01:17:31;;;;;;;1.50;1.03;;;;;;;14.05;49.30;99314.31;5093737;28;43032;-81
2022/07/16 01:19:59;;;;;;;1.00;1.00;;;;;;;14.01;49.77;99315.47;5076885;28;42162;-83
2022/07/16 01:22:27;;;;;;;1.97;1.27;;;;;;;13.97;50.18;99312.16;5093756;28;41757;-80
2022/07/16 01:24:56;;;;;;;1.30;1.20;;;;;;;13.92;51.23;99308.97;5093867;28;41720;-75
2022/07/16 01:27:24;;;;;;;1.63;1.40;;;;;;;13.87;50.84;99304.91;5095172;28;43305;-79
2022/07/16 01:29:52;;;;;;;1.23;0.83;;;;;;;13.81;50.68;99316.88;5076672;28;40352;-76
2022/07/16 01:32:20;;;;;;;1.20;1.10;;;;;;;13.76;50.44;99313.66;5093722;28;41695;-83
2022/07/16 01:34:47;;;;;;;1.00;0.90;;;;;;;13.74;50.81;99309.38;5094704;28;42764;-75
2022/07/16 01:37:16;;;;;;;1.77;1.20;;;;;;;13.67;50.41;99308.97;5093474;28;42254;-75
2022/07/16 01:39:43;;;;;;;4.07;1.53;;;;;;;13.66;50.69;99317.91;5093684;28;40853;-81
2022/07/16 01:42:13;;;;;;;1.20;1.10;;;;;;;13.62;50.67;99317.25;5093297;28;41566;-75
2022/07/16 01:44:40;;;;;;;1.00;0.90;;;;;;;13.59;50.59;99311.28;5094486;28;42756;-80
2022/07/16 01:47:10;;;;;;;4.20;1.33;;;;;;;13.55;50.53;99315.09;5076703;28;42587;-78
2022/07/16 01:49:40;;;;;;;1.00;0.93;;;;;;;13.53;50.59;99314.34;5093641;28;40921;-77
2022/07/16 01:52:10;;;;;;;1.17;1.00;;;;;;;13.50;50.78;99317.22;5076553;28;40112;-72
2022/07/16 01:54:42;;;;;;;1.47;0.90;;;;;;;13.45;50.64;99303.38;5093075;28;43831;-75
2022/07/16 01:57:12;;;;;;;1.20;1.10;;;;;;;13.43;51.06;99307.94;5091342;28;43236;-80
2022/07/16 01:59:41;;;;;;;3.27;1.17;;;;;;;13.39;50.66;99306.44;5093252;28;40159;-77
2022/07/16 02:02:09;;;;;;;1.00;0.90;;;;;;;13.34;50.71;99306.75;5092927;28;42642;-76
2022/07/16 02:04:38;;;;;;;1.30;1.00;;;;;;;13.33;50.59;99301.53;5092399;28;42783;-80
2022/07/16 02:07:06;;;;;;;1.00;0.90;;;;;;;13.31;50.89;99306.97;5094249;28;42224;-75
2022/07/16 02:09:34;;;;;;;1.10;0.90;;;;;;;13.28;51.03;99304.50;5093363;28;40900;-73
2022/07/16 02:12:02;;;;;;;2.63;1.20;;;;;;;13.27;51.12;99300.97;5094098;28;43016;-73
2022/07/16 02:14:32;;;;;;;1.90;1.13;;;;;;;13.26;51.02;99299.28;5075948;28;42339;-75
2022/07/16 02:16:59;;;;;;;1.13;1.03;;;;;;;13.17;50.93;99288.41;5094161;28;42023;-81
2022/07/16 02:19:27;;;;;;;1.20;1.10;;;;;;;13.22;50.95;99295.13;5093040;28;40962;-84
2022/07/16 02:21:55;;;;;;;2.03;0.97;;;;;;;13.13;51.11;99285.06;5093727;28;42472;-76
2022/07/16 02:24:23;;;;;;;0.80;0.80;;;;;;;13.18;51.35;99298.09;5092801;28;42805;-75
2022/07/16 02:26:51;;;;;;;1.33;1.23;;;;;;;13.05;51.40;99279.41;5075897;28;42543;-76
2022/07/16 02:29:18;;;;;;;1.23;1.00;;;;;;;13.14;51.50;99293.88;5092681;28;42435;-77
2022/07/16 02:31:47;;;;;;;1.03;1.03;;;;;;;13.07;51.44;99288.13;5092624;28;41806;-80
2022/07/16 02:34:16;;;;;;;1.27;1.00;;;;;;;13.07;51.25;99293.44;5092665;28;43703;-78
2022/07/16 02:36:43;;;;;;;1.60;0.93;;;;;;;13.06;51.64;99302.38;5093817;28;42164;-81
2022/07/16 02:39:11;;;;;;;1.47;1.10;;;;;;;13.04;51.85;99292.78;5093786;28;40025;-76
2022/07/16 02:41:39;;;;;;;1.37;1.20;;;;;;;13.02;51.96;99294.69;5093831;28;41739;-77
2022/07/16 02:44:07;;;;;;;1.70;1.30;;;;;;;12.99;52.02;99297.53;5093658;28;42813;-77
2022/07/16 02:46:35;;;;;;;1.03;1.03;;;;;;;12.96;52.08;99298.63;5075528;28;41946;-76
2022/07/16 02:49:04;;;;;;;1.40;1.30;;;;;;;12.93;52.01;99296.16;5092698;28;39921;-75
2022/07/16 02:51:31;;;;;;;1.70;1.27;;;;;;;12.90;52.09;99296.34;5093771;28;41953;-80
2022/07/16 02:53:59;;;;;;;1.53;1.03;;;;;;;12.88;52.16;99292.94;5075511;28;41965;-80
2022/07/16 02:56:27;;;;;;;1.20;1.00;;;;;;;12.79;52.05;99288.22;5092442;28;41199;-74
2022/07/16 02:58:55;;;;;;;2.20;0.87;;;;;;;12.81;52.26;99307.56;5075467;28;41169;-76
2022/07/16 03:01:23;;;;;;;1.37;1.10;;;;;;;12.79;52.16;99309.47;5075068;28;40943;-71
2022/07/16 03:03:51;;;;;;;1.30;1.20;;;;;;;12.76;52.07;99304.34;5093193;28;42770;-75
2022/07/16 03:06:20;;;;;;;2.43;1.33;;;;;;;12.63;52.34;99291.00;5093426;28;42948;-75
2022/07/16 03:08:48;;;;;;;1.33;1.23;;;;;;;12.64;52.61;99294.50;5092036;28;40012;-73
2022/07/16 03:11:17;;;;;;;1.90;1.30;;;;;;;12.69;52.60;99313.69;5092316;28;41858;-81
2022/07/16 03:13:44;;;;;;;0.90;0.90;;;;;;;12.67;52.66;99304.94;5074817;28;43150;-71
2022/07/16 03:16:12;;;;;;;1.03;0.97;;;;;;;12.66;52.85;99303.25;5093649;28;41964;-74
2022/07/16 03:18:40;;;;;;;1.10;1.00;;;;;;;12.65;52.44;99313.00;5092348;28;40219;-85
2022/07/16 03:21:08;;;;;;;0.97;0.90;;;;;;;12.62;52.89;99309.69;5091593;28;41588;-84
2022/07/16 03:23:37;;;;;;;1.20;1.00;;;;;;;12.62;52.74;99312.34;5092789;28;43774;-78
2022/07/16 03:26:05;;;;;;;1.60;1.30;;;;;;;12.59;53.13;99308.09;5092158;28;43018;-80
2022/07/16 03:28:32;;;;;;;1.63;1.53;;;;;;;12.56;53.19;99309.16;5092120;28;40638;-78
2022/07/16 03:31:00;;;;;;;1.20;1.10;;;;;;;12.54;53.32;99316.34;5091873;28;41833;-75
2022/07/16 03:33:28;;;;;;;1.17;1.00;;;;;;;12.51;53.35;99307.72;5093197;28;43353;-81
2022/07/16 03:35:55;;;;;;;1.40;1.10;;;;;;;12.51;53.58;99316.53;5092813;28;42175;-78
2022/07/16 03:41:10;;;;;;;3.10;1.23;;;;;;;12.48;53.97;99314.09;5091689;28;40728;-81
2022/07/16 03:43:37;;;;;;;1.30;1.20;;;;;;;12.46;53.93;99310.69;5091439;28;42995;-77
2022/07/16 03:46:06;;;;;;;1.77;1.37;;;;;;;12.45;53.88;99313.44;5091675;28;42482;-77
2022/07/16 03:48:33;;;;;;;2.30;1.10;;;;;;;12.45;53.74;99316.09;5091529;28;39786;-77
2022/07/16 03:51:02;;;;;;;1.30;1.20;;;;;;;12.45;53.92;99321.41;5092696;28;41701;-74
2022/07/16 03:53:30;;;;;;;2.53;1.20;;;;;;;12.46;53.77;99323.09;5092681;28;42841;-79
2022/07/16 03:55:58;;;;;;;0.90;0.90;;;;;;;12.46;53.73;99321.31;5091282;28;43154;-76
2022/07/16 03:58:27;;;;;;;1.27;1.03;;;;;;;12.48;53.88;99322.06;5091708;28;39702;-76
2022/07/16 04:00:55;;;;;;;1.30;1.00;;;;;;;12.51;53.91;99332.47;5092260;28;41590;-75
2022/07/16 04:03:23;;;;;;;1.20;1.10;;;;;;;12.53;53.74;99327.94;5091197;28;42714;-79
2022/07/16 04:05:52;;;;;;;1.77;1.00;;;;;;;12.57;53.59;99331.25;5091226;28;43009;-77
2022/07/16 04:08:19;;;;;;;1.77;1.27;;;;;;;12.63;53.87;99330.00;5092778;28;39971;-80
2022/07/16 04:10:47;;;;;;;1.97;1.20;;;;;;;12.68;53.76;99330.56;5090884;28;43088;-74
2022/07/16 04:13:15;;;;;;;1.97;1.27;;;;;;;12.76;53.58;99331.78;5092518;28;42683;-77
2022/07/16 04:15:44;;;;;;;1.20;1.10;;;;;;;12.85;53.70;99341.00;5091031;28;43177;-78
2022/07/16 04:18:12;;;;;;;4.43;1.27;;;;;;;12.92;54.24;99331.66;5091542;28;39925;-82
2022/07/16 04:20:41;;;;;;;1.90;1.10;;;;;;;13.01;53.85;99328.41;5091893;28;41723;-75
2022/07/16 04:23:08;;;;;;;1.43;1.10;;;;;;;13.11;53.67;99326.84;5074198;28;42775;-82
2022/07/16 04:25:36;;;;;;;1.47;0.93;;;;;;;13.19;53.82;99319.28;5090574;28;40576;-76
2022/07/16 04:28:04;;;;;;;1.37;1.27;;;;;;;13.32;53.81;99324.63;5092376;28;40914;-81
2022/07/16 04:30:32;;;;;;;1.50;1.40;;;;;;;13.42;53.96;99324.88;5092208;28;42429;-80
2022/07/16 04:33:01;;;;;;;1.20;1.10;;;;;;;13.52;53.92;99320.63;5091119;28;42541;-74
2022/07/16 04:35:29;;;;;;;1.73;1.30;;;;;;;13.60;54.10;99323.63;5091565;28;43051;-79
2022/07/16 04:37:57;;;;;;;1.70;1.40;;;;;;;13.68;54.31;99326.63;5091198;28;41669;-78
2022/07/16 04:40:25;;;;;;;1.60;1.30;;;;;;;13.76;54.15;99324.28;5090761;28;40680;-77
2022/07/16 04:42:52;;;;;;;2.17;1.67;;;;;;;13.83;54.91;99324.75;5073802;28;43576;-75
2022/07/16 04:45:20;;;;;;;1.57;1.13;;;;;;;13.89;54.71;99330.50;5091860;28;42338;-76
2022/07/16 04:47:48;;;;;;;2.13;1.33;;;;;;;13.96;54.50;99331.78;5090983;28;38686;-77
2022/07/16 04:50:17;;;;;;;1.47;1.30;;;;;;;14.07;54.27;99330.19;5091681;28;42707;-80
2022/07/16 04:52:45;;;;;;;2.50;1.40;;;;;;;14.16;53.95;99333.06;5090812;28;43916;-76
2022/07/16 04:55:13;;;;;;;2.33;1.53;;;;;;;14.25;53.86;99332.41;5090562;28;42556;-73
2022/07/16 04:57:40;;;;;;;1.87;1.30;;;;;;;14.29;53.80;99328.59;5092157;28;39827;-78
2022/07/16 05:00:10;;;;;;;1.63;1.53;;;;;;;14.46;54.24;99335.44;5072871;28;40718;-75
2022/07/16 05:05:23;;;;;;;2.00;1.57;;;;;;;14.70;53.99;99349.69;5090304;28;42358;-80
2022/07/16 05:07:51;;;;;;;1.97;1.47;;;;;;;14.83;53.69;99348.81;5073813;28;40125;-82
2022/07/16 05:10:19;;;;;;;1.87;1.60;;;;;;;14.93;53.31;99348.03;5090649;28;41497;-84
2022/07/16 05:12:47;;;;;;;1.53;1.40;;;;;;;15.05;53.52;99348.94;5090690;28;42870;-78
2022/07/16 05:15:15;;;;;;;3.07;1.77;;;;;;;15.17;53.43;99353.38;5091574;28;42637;-81
2022/07/16 05:17:43;;;;;;;2.23;1.70;;;;;;;15.27;53.32;99349.06;5090605;28;39986;-80
2022/07/16 05:20:12;;;;;;;1.80;1.43;;;;;;;15.39;53.18;99348.16;5090223;28;42095;-82
2022/07/16 05:22:41;;;;;;;3.80;2.07;;;;;;;15.51;53.35;99350.88;5090264;28;42879;-83
2022/07/16 05:25:11;;;;;;;2.07;1.80;;;;;;;15.62;52.79;99354.47;5090045;28;41400;-80
2022/07/16 05:27:39;;;;;;;4.47;1.80;;;;;;;15.75;52.73;99349.06;5073509;28;40350;-81
2022/07/16 05:30:09;;;;;;;2.43;1.60;;;;;;;15.87;52.56;99350.78;5090252;28;42177;-82
2022/07/16 05:32:37;;;;;;;2.47;1.80;;;;;;;15.94;52.38;99333.34;5090166;28;43220;-80
2022/07/16 05:35:05;;;;;;;1.90;1.63;;;;;;;16.10;51.85;99355.22;5089778;28;41504;-82
2022/07/16 05:37:33;;;;;;;3.57;1.80;;;;;;;16.23;51.94;99362.28;5091676;28;39714;-82
2022/07/16 05:40:03;;;;;;;1.70;1.57;;;;;;;16.37;51.88;99359.41;5094421;28;41540;-81
2022/07/16 05:42:31;;;;;;;2.77;1.50;;;;;;;16.50;51.26;99358.31;5093821;28;44363;-81
2022/07/16 05:44:59;;;;;;;3.07;1.47;;;;;;;16.62;50.80;99366.34;5076806;28;40526;-84
2022/07/16 05:47:27;;;;;;;3.37;1.57;;;;;;;16.75;50.87;99367.94;5094897;28;39917;-81
2022/07/16 05:49:54;;;;;;;1.87;1.43;;;;;;;16.83;50.49;99362.81;5093398;28;41805;-73
2022/07/16 05:52:22;;;;;;;1.63;1.40;;;;;;;17.00;50.12;99371.34;5094767;28;42738;-82
2022/07/16 05:54:50;;;;;;;1.67;1.20;;;;;;;17.13;49.82;99378.25;5094672;28;42067;-81
2022/07/16 05:57:19;;;;;;;1.63;1.30;;;;;;;17.26;49.71;99385.28;5093575;28;40273;-78
2022/07/16 05:59:46;;;;;;;1.70;1.60;;;;;;;17.30;49.31;99363.50;5092985;28;42465;-81
2022/07/16 06:02:14;;;;;;;1.93;1.40;;;;;;;17.50;49.38;99386.78;5093250;28;42673;-75
2022/07/16 06:04:42;;;;;;;3.80;1.70;;;;;;;17.53;48.91;99375.84;5069372;28;43503;-79
2022/07/16 06:07:10;;;;;;;1.73;1.40;;;;;;;17.77;48.85;99393.56;5081980;28;39909;-78
2022/07/16 06:09:37;;;;;;;2.03;1.70;;;;;;;17.89;48.97;99393.38;5074565;28;42665;-77
2022/07/16 06:12:06;;;;;;;1.20;1.10;;;;;;;18.02;48.56;99392.34;5093184;28;42463;-72
2022/07/16 06:14:35;;;;;;;2.03;1.70;;;;;;;18.11;47.87;99402.28;5091725;28;42967;-85
2022/07/16 06:17:03;;;;;;;2.20;1.70;;;;;;;18.25;47.50;99400.13;5084204;28;40650;-77
2022/07/16 06:19:30;;;;;;;1.80;1.40;;;;;;;18.37;47.25;99405.41;5073784;28;41642;-78
2022/07/16 06:21:58;;;;;;;2.00;1.57;;;;;;;18.47;47.19;99398.28;5073710;28;42745;-80
2022/07/16 06:24:26;;;;;;;2.90;1.53;;;;;;;18.63;46.57;99409.41;5072387;28;41281;-72
2022/07/16 06:26:53;;;;;;;2.97;1.70;;;;;;;18.77;46.53;99414.44;5073926;28;39953;-77
2022/07/16 06:29:21;;;;;;;2.53;1.43;;;;;;;18.95;46.06;99420.88;5072432;28;41818;-79
2022/07/16 06:31:50;;;;;;;1.60;1.50;;;;;;;19.13;45.77;99417.53;5072594;28;41715;-78
2022/07/16 06:34:18;;;;;;;3.73;1.60;;;;;;;19.30;45.47;99419.56;5072084;28;41185;-79
2022/07/16 06:36:46;;;;;;;1.83;1.33;;;;;;;19.45;45.12;99426.25;5086080;28;40915;-76
2022/07/16 06:39:13;;;;;;;3.33;1.30;;;;;;;19.67;44.36;99428.72;5074060;28;43226;-76
2022/07/16 06:41:41;;;;;;;1.40;1.30;;;;;;;19.93;43.67;99428.19;5074735;28;42213;-78
2022/07/16 06:44:09;;;;;;;2.00;1.27;;;;;;;20.10;43.31;99446.31;5084318;28;42160;-83
2022/07/16 06:46:37;;;;;;;2.57;1.40;;;;;;;20.25;42.92;99446.72;5073451;28;40960;-75
2022/07/16 06:49:06;;;;;;;2.07;1.43;;;;;;;20.37;42.59;99441.09;5071605;28;41899;-80
2022/07/16 06:51:33;;;;;;;1.73;1.20;;;;;;;20.54;42.67;99444.84;5055222;28;41558;-84
2022/07/16 06:54:01;;;;;;;1.43;1.07;;;;;;;20.71;42.20;99441.44;5074899;28;40934;-76
2022/07/16 06:56:28;;;;;;;2.70;1.40;;;;;;;20.92;42.01;99454.69;5093164;28;41264;-81
2022/07/16 06:58:56;;;;;;;2.30;1.50;;;;;;;21.20;41.60;99447.53;5092142;28;42788;-85
2022/07/16 07:01:24;;;;;;;1.57;1.23;;;;;;;21.48;41.22;99449.22;5074758;28;42834;-81
2022/07/16 07:03:52;;;;;;;2.83;1.20;;;;;;;21.81;40.90;99447.72;5076755;28;41353;-81
2022/07/16 07:06:21;;;;;;;1.63;1.10;;;;;;;22.10;39.64;99457.50;5088286;28;42124;-84
2022/07/16 07:08:49;;;;;;;2.03;1.13;;;;;;;22.34;39.30;99452.31;5074748;28;41797;-72
2022/07/16 07:11:16;;;;;;;2.93;1.10;;;;;;;22.66;38.72;99462.50;5093553;28;42863;-78
2022/07/16 07:13:44;;;;;;;2.20;1.13;;;;;;;22.88;37.73;99463.84;5075066;28;43915;-83
2022/07/16 07:16:12;;;;;;;3.73;1.57;;;;;;;23.11;37.79;99466.88;5092419;28;39840;-82
2022/07/16 07:18:40;;;;;;;2.20;1.03;;;;;;;23.26;37.32;99463.38;5093473;28;42674;-84
2022/07/16 07:21:08;;;;;;;1.27;0.87;;;;;;;23.31;36.68;99445.84;5091881;28;43733;-76
2022/07/16 07:23:37;;;;;;;1.80;0.97;;;;;;;23.45;37.04;99447.94;5090546;28;40986;-81
2022/07/16 07:26:04;;;;;;;1.23;0.97;;;;;;;23.72;36.22;99474.75;5093254;28;40094;-84
2022/07/16 07:28:32;;;;;;;1.43;1.00;;;;;;;23.90;35.44;99480.88;5091982;28;41165;-79
2022/07/16 07:30:59;;;;;;;1.07;0.93;;;;;;;24.21;35.57;99474.88;5093117;28;42799;-78
2022/07/16 07:33:27;;;;;;;1.37;1.03;;;;;;;24.76;35.23;99475.03;5074936;28;43905;-76
2022/07/16 07:35:55;;;;;;;1.20;0.80;;;;;;;25.61;33.60;99480.78;5091549;28;40885;-83
2022/07/16 07:38:23;;;;;;;1.00;0.60;;;;;;;26.61;31.76;99490.66;5090254;28;41846;-79
2022/07/16 07:40:52;;;;;;;1.60;0.70;;;;;;;27.52;30.57;99490.41;5076087;28;42932;-79
2022/07/16 07:43:19;;;;;;;0.77;0.77;;;;;;;28.46;29.45;99509.56;5074732;28;41109;-83
2022/07/16 07:45:47;;;;;;;0.70;0.60;;;;;;;29.47;27.95;99498.25;5092767;28;40827;-79
2022/07/16 07:48:15;;;;;;;1.60;0.67;;;;;;;30.79;26.44;99503.28;5074808;28;40912;-81
2022/07/16 07:50:42;;;;;;;0.83;0.70;;;;;;;32.04;25.20;99520.31;5092762;28;42480;-80
2022/07/16 07:53:11;;;;;;;1.20;1.10;;;;;;;32.74;23.77;99525.88;5091390;28;43314;-77
2022/07/16 07:55:39;;;;;;;1.90;1.10;;;;;;;32.93;23.81;99519.34;5091704;28;41929;-84
2022/07/16 07:58:09;;;;;;;1.23;0.80;;;;;;;32.42;23.91;99531.31;5091671;28;42026;-73
2022/07/16 08:00:37;;;;;;;0.80;0.80;;;;;;;31.94;24.70;99519.94;5091520;28;43123;-79
2022/07/16 08:03:05;;;;;;;1.60;1.00;;;;;;;32.21;24.24;99514.38;5091594;28;41442;-81
2022/07/16 08:05:33;;;;;;;1.53;1.17;;;;;;;33.24;23.16;99523.97;5074143;28;38874;-80
2022/07/16 08:08:00;;;;;;;2.20;0.90;;;;;;;34.87;22.13;99529.50;5091274;28;41845;-77
2022/07/16 08:10:28;;;;;;;1.53;1.10;;;;;;;35.78;20.61;99531.69;5091194;28;43316;-82
2022/07/16 08:12:56;;;;;;;1.27;1.07;;;;;;;35.78;20.87;99528.09;5074325;28;41101;-87
2022/07/16 08:15:25;;;;;;;1.57;0.93;;;;;;;35.27;21.03;99532.44;5091558;28;39883;-78
2022/07/16 08:17:53;;;;;;;1.93;0.90;;;;;;;34.81;21.52;99530.47;5091128;28;40745;-86
2022/07/16 08:20:21;;;;;;;0.87;0.87;;;;;;;34.06;21.96;99522.63;5074114;28;41829;-82
2022/07/16 08:22:48;;;;;;;0.60;0.60;;;;;;;33.59;22.29;99506.91;5074242;28;41186;-77
2022/07/16 08:28:01;;;;;;;0.97;0.83;;;;;;;35.74;20.82;99508.44;5090947;28;42162;-80
2022/07/16 08:30:31;;;;;;;0.77;0.77;;;;;;;37.73;19.14;99524.69;5090809;28;42906;-77
2022/07/16 08:32:58;;;;;;;1.50;1.10;;;;;;;38.80;17.76;99535.94;5092024;28;42043;-79
2022/07/16 08:35:26;;;;;;;3.00;1.63;;;;;;;39.13;17.99;99528.44;5090871;28;40973;-75
2022/07/16 08:37:53;;;;;;;1.77;1.00;;;;;;;39.33;17.63;99528.56;5092346;28;42634;-79
2022/07/16 08:40:22;;;;;;;1.95;1.15;;;;;;;38.89;17.83;99521.59;5090693;28;42766;-81
2022/07/16 08:42:50;;;;;;;1.40;1.08;;;;;;;38.76;17.75;99536.69;5091846;28;42280;-81
2022/07/16 08:45:21;;;;;;;2.20;1.10;;;;;;;39.07;17.40;99546.97;5090322;28;39937;-79
2022/07/16 08:47:53;;;;;;;1.10;1.00;;;;;;;39.49;17.28;99533.16;5074112;28;40715;-79
2022/07/16 08:50:21;;;;;;;1.38;1.00;;;;;;;39.76;16.95;99538.56;5090301;28;42686;-80
2022/07/16 08:52:51;;;;;;;1.58;0.98;;;;;;;39.94;16.89;99540.06;5091867;28;42319;-83
2022/07/16 08:55:22;;;;;;;1.17;0.95;;;;;;;39.97;16.47;99544.25;5090696;28;40182;-81
2022/07/16 08:57:50;;;;;;;1.63;0.93;;;;;;;39.78;16.54;99543.84;5091166;28;42459;-81
2022/07/16 09:00:19;;;;;;;1.20;1.02;;;;;;;39.56;16.91;99532.09;5073122;28;42275;-81
2022/07/16 09:02:48;;;;;;;1.63;1.00;;;;;;;39.33;17.04;99539.66;5088837;28;43319;-80
2022/07/16 09:05:17;;;;;;;1.40;0.90;;;;;;;39.03;17.42;99528.38;5091500;28;40298;-77
2022/07/16 09:07:45;;;;;;;1.10;1.00;;;;;;;38.43;17.50;99540.50;5090663;28;40738;-78
2022/07/16 09:10:14;;;;;;;1.40;1.20;;;;;;;37.73;18.18;99533.81;5090135;28;42065;-80
2022/07/16 09:12:43;;;;;;;1.80;1.20;;;;;;;37.20;18.83;99536.34;5093044;28;42244;-77
2022/07/16 09:15:26;;;;;;;1.60;1.10;;;;;;;37.06;18.52;99535.84;5095087;28;39943;-76
2022/07/16 09:18:18;;;;;;;1.70;1.20;;;;;;;36.92;18.75;99526.19;5094062;28;41429;-77
2022/07/16 09:20:51;;;;;;;2.53;1.10;;;;;;;36.17;19.51;99523.66;5093380;28;42631;-73
2022/07/16 09:23:25;;;;;;;1.23;1.10;;;;;;;35.49;19.63;99521.66;5091475;28;42150;-79
2022/07/16 09:25:55;;;;;;;2.37;1.07;;;;;;;35.16;20.33;99514.81;5093076;28;41103;-79
2022/07/16 09:28:25;;;;;;;1.80;1.00;;;;;;;35.31;20.33;99511.63;5076895;28;42430;-81
2022/07/16 09:30:53;;;;;;;1.63;1.10;;;;;;;35.34;20.41;99504.78;5094705;28;43640;-81
2022/07/16 09:33:23;;;;;;;0.97;0.97;;;;;;;35.24;20.51;99517.19;5093736;28;42451;-80
2022/07/16 09:36:07;;;;;;;1.40;1.20;;;;;;;34.81;20.89;99511.19;5093256;28;39982;-73
2022/07/16 09:38:49;;;;;;;2.23;1.17;;;;;;;35.35;20.49;99521.09;5090758;28;41766;-78
2022/07/16 09:41:17;;;;;;;1.60;0.97;;;;;;;35.71;20.42;99522.72;5079794;28;42766;-80
2022/07/16 09:43:45;;;;;;;1.83;1.20;;;;;;;35.86;20.09;99514.78;5073251;28;42208;-78
2022/07/16 09:46:18;;;;;;;1.90;1.30;;;;;;;36.13;19.74;99525.25;5074620;28;40126;-83
2022/07/16 09:48:46;;;;;;;1.60;1.10;;;;;;;36.82;19.08;99526.88;5056486;28;42009;-79
2022/07/16 09:51:19;;;;;;;2.13;1.27;;;;;;;37.97;18.06;99525.28;5087978;28;42706;-85
2022/07/16 09:53:48;;;;;;;1.30;1.20;;;;;;;38.49;17.72;99525.63;5092934;28;41285;-84
2022/07/16 09:56:17;;;;;;;1.43;1.03;;;;;;;39.17;16.74;99524.06;5093480;28;39642;-85
2022/07/16 09:58:49;;;;;;;1.75;1.20;;;;;;;39.92;16.79;99522.88;5076112;28;40251;-75
2022/07/16 10:01:19;;;;;;;2.20;1.20;;;;;;;39.59;16.74;99526.00;5092862;28;43581;-81
2022/07/16 10:03:48;;;;;;;1.43;1.03;;;;;;;37.95;17.88;99517.25;5094131;28;42088;-80
2022/07/16 10:06:17;;;;;;;1.90;1.37;;;;;;;36.35;19.08;99523.53;5093325;28;40088;-80
2022/07/16 10:08:47;;;;;;;1.67;1.07;;;;;;;35.12;20.09;99527.38;5094207;28;41500;-81
2022/07/16 10:11:15;;;;;;;1.20;1.10;;;;;;;34.75;20.80;99518.44;5092834;28;44053;-78
2022/07/16 10:13:45;;;;;;;2.13;1.30;;;;;;;34.68;20.86;99517.72;5086358;28;41178;-81
2022/07/16 10:16:13;;;;;;;1.30;1.20;;;;;;;34.74;20.72;99518.72;5078871;28;39175;-77
2022/07/16 10:18:44;;;;;;;1.33;1.23;;;;;;;35.09;20.41;99519.63;5074141;28;41922;-75
2022/07/16 10:21:15;;;;;;;1.43;1.30;;;;;;;35.64;20.06;99514.56;5073942;28;42913;-78
2022/07/16 10:23:47;;;;;;;1.60;1.27;;;;;;;36.74;18.75;99531.94;5083963;28;42461;-80
2022/07/16 10:26:16;;;;;;;1.93;1.33;;;;;;;37.60;18.69;99525.03;5092956;28;41243;-78
2022/07/16 10:28:47;;;;;;;1.13;1.07;;;;;;;38.13;17.49;99529.09;5090175;28;42663;-81
2022/07/16 10:31:35;;;;;;;1.52;1.40;;;;;;;38.17;17.37;99530.25;5091247;28;43403;-88
2022/07/16 10:34:39;;;;;;;2.88;1.20;;;;;;;37.86;17.60;99527.06;5092204;28;41823;-79
2022/07/16 10:37:13;;;;;;;1.88;1.25;;;;;;;37.65;18.07;99539.81;5092319;28;38247;-80
2022/07/16 10:40:06;;;;;;;0.90;0.88;;;;;;;37.27;18.35;99526.78;5109440;28;40847;-77
2022/07/16 10:42:34;;;;;;;2.33;1.20;;;;;;;37.61;18.45;99526.72;5092678;28;42150;-74
2022/07/16 10:45:02;;;;;;;1.08;1.08;;;;;;;37.90;17.89;99519.94;5093493;28;42301;-74
2022/07/16 10:47:48;;;;;;;1.67;1.30;;;;;;;37.93;17.38;99529.66;5075749;28;40433;-77
2022/07/16 10:50:20;;;;;;;3.93;1.43;;;;;;;37.45;17.74;99533.13;5085053;28;42033;-81
2022/07/16 10:52:51;;;;;;;2.55;1.45;;;;;;;36.89;18.14;99532.22;5069160;28;42676;-78
2022/07/16 10:55:31;;;;;;;1.90;1.30;;;;;;;36.39;18.67;99524.69;5071761;28;42460;-82
2022/07/16 10:57:59;;;;;;;1.63;1.53;;;;;;;35.61;19.01;99467.34;5070025;28;41082;-81
2022/07/16 11:00:28;;;;;;;1.97;1.87;;;;;;;35.25;19.63;99513.41;5072615;28;42722;-80
2022/07/16 11:03:00;;;;;;;1.73;1.40;;;;;;;35.41;20.16;99499.97;5073075;28;42915;-80
2022/07/16 11:05:30;;;;;;;1.87;1.30;;;;;;;35.94;20.01;99499.78;5054389;28;42339;-84
2022/07/16 11:08:09;;;;;;;1.47;1.37;;;;;;;35.86;19.86;99513.94;5072932;28;39768;-80
2022/07/16 11:10:39;;;;;;;1.37;1.20;;;;;;;35.32;19.31;99512.44;5072539;28;43086;-77
2022/07/16 11:13:15;;;;;;;1.50;1.40;;;;;;;34.80;20.11;99512.28;5073218;28;43508;-80
2022/07/16 11:15:43;;;;;;;1.20;1.10;;;;;;;34.88;20.79;99495.41;5070880;28;42712;-74
2022/07/16 11:18:16;;;;;;;1.90;1.60;;;;;;;35.08;20.62;99501.41;5066970;28;41962;-77
2022/07/16 11:20:45;;;;;;;1.77;1.40;;;;;;;35.20;20.12;99506.91;5071280;28;42554;-73
2022/07/16 11:23:13;;;;;;;2.80;1.30;;;;;;;35.32;21.09;99498.69;5072598;28;42414;-82
2022/07/16 11:26:01;;;;;;;1.53;1.30;;;;;;;35.55;20.56;99495.88;5071410;28;43287;-84
2022/07/16 11:28:29;;;;;;;1.60;1.20;;;;;;;35.78;20.51;99504.13;5068311;28;41392;-81
2022/07/16 11:31:08;;;;;;;1.50;1.40;;;;;;;35.90;19.99;99515.13;5072439;28;42747;-77
2022/07/16 11:33:37;;;;;;;1.93;1.30;;;;;;;35.80;20.12;99504.75;5053941;28;43529;-80
2022/07/16 11:36:08;;;;;;;1.70;1.33;;;;;;;35.39;19.64;99518.66;5071264;28;40944;-76
2022/07/16 11:38:37;;;;;;;1.63;1.37;;;;;;;34.90;19.97;99512.50;5074909;28;39702;-79
2022/07/16 11:41:06;;;;;;;1.20;1.10;;;;;;;34.41;20.58;99514.53;5070758;28;42767;-75
2022/07/16 11:43:34;;;;;;;1.50;1.40;;;;;;;34.34;21.05;99504.72;5070961;28;41445;-76
2022/07/16 11:46:02;;;;;;;2.63;1.50;;;;;;;34.56;20.53;99519.59;5070892;28;43139;-82
2022/07/16 11:48:36;;;;;;;1.40;1.30;;;;;;;34.27;20.33;99507.53;5071102;28;39460;-76
2022/07/16 11:51:08;;;;;;;1.53;1.40;;;;;;;34.19;20.53;99513.34;5072041;28;41905;-79
2022/07/16 11:53:37;;;;;;;1.60;1.50;;;;;;;35.21;20.02;99517.69;5053347;28;43221;-76